Share

Archibald, LA

KLARAYVI2 Elev 79 ft | 32.49 °N, 91.80 °W | Change Station

Current weather conditions updated 2 seconds ago

Clear
Clear
50.2 °F
Feels Like 50.2 °F
N
0.0
Wind Variable Wind from North
Gusts 0.0 mph
Sunrise 6:36 AM
Sunset 7:37 PM
Moon Waning Gibbous

Tomorrow is forecast to be Warmer than today.

Pressure 30.09 in
Visibility 10.0 miles
Clouds Clear
Dew Point 41 °F
Humidity 70%
Rainfall 0.00 in
Snow Depth Not available.
UV 0 out of 16
Pollen 8.30 out of 12
Air Quality Not available.
Flu Activity Local Activity
METAR KMLU 170053Z 00000KT 10SM CLR 13/03 A3010 RMK AO2 SLP190 T01280033 $

More Conditions Fewer Conditions

Pressure 30.09 in
Visibility 10.0 miles
Clouds Clear
Dew Point 41 °F
Humidity 70%
Rainfall 0.00 in
Snow Depth Not available.
UV 0 out of 16
Pollen 8.30 out of 12
Air Quality Not available.
Flu Activity Local Activity
METAR KMLU 170053Z 00000KT 10SM CLR 13/03 A3010 RMK AO2 SLP190 T01280033 $

More Conditions Fewer Conditions

10-Day Forecast

Almanac

Astronomy

Apr. 16, 2014 Rise Set
Actual Time 6:36 AM CDT 7:37 PM CDT
Civil Twilight 6:11 AM CDT 8:02 PM CDT
Nautical Twilight 5:41 AM CDT 8:32 PM CDT
Astronomical Twilight 5:10 AM CDT 9:03 PM CDT
Moon 9:16 PM CDT (4/16) 7:27 AM CDT (4/16)
Length of Visible Light 13h 51m
Length of Day
13h 00m
Tomorrow will be 1m 52s longer.
Waning Gibbous, 96% of the Moon is Illuminated
Today
Waning Gibbous
Apr 22
Last Quarter
Apr 29
New
May 6
First Quarter
May 14
Full

Today's Extremes

State Highs State Lows

Community

  • symphony in blue....
    symphony in blue....
  • Dawn Surprise
    Dawn Surprise
  • Yucca delight
    Yucca delight
  • Sunset inside of the Ocean
    Sunset inside of the Ocean
  • Lunar eclipse 15 April 2014
    Lunar eclipse 15 April 2014

WunderPhotos

Upload Photos

1,701,783 photos uploaded!

WunderBlogs® & News

Nearby

Snow Depth

Station Depth Elevation
No new snow has been reported.

Coastal Water Temperatures

Place Temperature
No Stations Reporting

Earthquake Activity

City Distance Mag. Time & Date
No recent earthquake activity has been reported nearby.
Minimum magnitude displayed is 2.5.

Nearby Weather Stations

Station Location Temp. Dew Point Humidity Wind Precip. Elev Updated Type
Rayville, LA 50.2 °F 41 °F 70% North  at  0.0 mph 0.00 in / hr 79 ft 8:27 PM CDT Rapid Fire
Delta Community College, Monroe, LA 53.7 °F 41 °F 62% East  at  1.0 mph 0.00 in / hr 82 ft 8:27 PM CDT Rapid Fire
Lakeshore/Swartz, Monroe, LA 50.5 °F 41 °F 69% North  at  0.0 mph 0.00 in / hr 105 ft 8:27 PM CDT Rapid Fire
MesoWest CLNSTN , Collinston, LA 69 °F - - North  at  - 0.00 in / hr 78 ft 5:40 PM CDT MADIS
Pecan Bayou, Monroe, LA 58.4 °F 43 °F 57% SE  at  0.0 mph 0.00 in / hr 121 ft 8:13 PM CDT Normal

Show More Stations Show Fewer Stations

What do you think?

We're not finished. Please let us know what you like, what you don't like, and what you are still missing.